sensor_id;sensor_type;location;lat;lon;timestamp;P1;durP1;ratioP1;P2;durP2;ratioP2
38085;SDS011;23896;50.678;10.924;2022-08-19T00:02:04;32.83;;;25.02;;
38085;SDS011;23896;50.678;10.924;2022-08-19T00:04:32;32.10;;;25.30;;
38085;SDS011;23896;50.678;10.924;2022-08-19T00:07:05;29.27;;;24.17;;
38085;SDS011;23896;50.678;10.924;2022-08-19T00:09:32;41.20;;;33.22;;
38085;SDS011;23896;50.678;10.924;2022-08-19T00:11:59;30.60;;;24.83;;
38085;SDS011;23896;50.678;10.924;2022-08-19T00:14:28;31.48;;;26.02;;
38085;SDS011;23896;50.678;10.924;2022-08-19T00:16:59;29.27;;;26.10;;
38085;SDS011;23896;50.678;10.924;2022-08-19T00:19:28;28.85;;;25.45;;
38085;SDS011;23896;50.678;10.924;2022-08-19T00:21:56;32.95;;;24.27;;
38085;SDS011;23896;50.678;10.924;2022-08-19T00:24:24;26.38;;;22.70;;
38085;SDS011;23896;50.678;10.924;2022-08-19T00:26:50;27.70;;;24.13;;
38085;SDS011;23896;50.678;10.924;2022-08-19T00:29:19;32.22;;;26.13;;
38085;SDS011;23896;50.678;10.924;2022-08-19T00:31:49;32.10;;;26.13;;
38085;SDS011;23896;50.678;10.924;2022-08-19T00:34:19;31.00;;;24.13;;
38085;SDS011;23896;50.678;10.924;2022-08-19T00:36:46;29.58;;;23.70;;
38085;SDS011;23896;50.678;10.924;2022-08-19T00:39:15;29.50;;;24.88;;
38085;SDS011;23896;50.678;10.924;2022-08-19T00:41:42;29.42;;;24.08;;
38085;SDS011;23896;50.678;10.924;2022-08-19T00:44:14;28.42;;;23.58;;
38085;SDS011;23896;50.678;10.924;2022-08-19T00:46:43;28.10;;;23.42;;
38085;SDS011;23896;50.678;10.924;2022-08-19T00:49:15;26.85;;;23.70;;
38085;SDS011;23896;50.678;10.924;2022-08-19T00:54:10;30.67;;;23.08;;
38085;SDS011;23896;50.678;10.924;2022-08-19T00:56:37;31.10;;;22.58;;
38085;SDS011;23896;50.678;10.924;2022-08-19T00:59:06;26.85;;;22.63;;
38085;SDS011;23896;50.678;10.924;2022-08-19T01:01:37;25.98;;;21.85;;
38085;SDS011;23896;50.678;10.924;2022-08-19T01:04:03;26.25;;;23.10;;
38085;SDS011;23896;50.678;10.924;2022-08-19T01:06:30;27.63;;;22.35;;
38085;SDS011;23896;50.678;10.924;2022-08-19T01:08:58;24.80;;;22.08;;
38085;SDS011;23896;50.678;10.924;2022-08-19T01:11:24;26.92;;;23.30;;
38085;SDS011;23896;50.678;10.924;2022-08-19T01:13:52;27.58;;;22.23;;
38085;SDS011;23896;50.678;10.924;2022-08-19T01:16:20;29.50;;;21.90;;
38085;SDS011;23896;50.678;10.924;2022-08-19T01:18:47;26.95;;;23.77;;
38085;SDS011;23896;50.678;10.924;2022-08-19T01:21:34;27.42;;;22.90;;
38085;SDS011;23896;50.678;10.924;2022-08-19T01:24:03;25.48;;;21.40;;
38085;SDS011;23896;50.678;10.924;2022-08-19T01:26:30;28.55;;;22.52;;
38085;SDS011;23896;50.678;10.924;2022-08-19T01:28:58;26.23;;;23.35;;
38085;SDS011;23896;50.678;10.924;2022-08-19T01:31:27;28.17;;;23.50;;
38085;SDS011;23896;50.678;10.924;2022-08-19T01:33:57;25.92;;;22.38;;
38085;SDS011;23896;50.678;10.924;2022-08-19T01:39:21;26.40;;;23.13;;
38085;SDS011;23896;50.678;10.924;2022-08-19T01:41:47;28.58;;;23.45;;
38085;SDS011;23896;50.678;10.924;2022-08-19T01:44:14;28.90;;;23.58;;
38085;SDS011;23896;50.678;10.924;2022-08-19T01:46:41;25.95;;;22.42;;
38085;SDS011;23896;50.678;10.924;2022-08-19T01:49:09;25.98;;;22.02;;
38085;SDS011;23896;50.678;10.924;2022-08-19T01:51:36;26.85;;;23.95;;
38085;SDS011;23896;50.678;10.924;2022-08-19T01:54:02;25.40;;;21.88;;
38085;SDS011;23896;50.678;10.924;2022-08-19T01:56:29;25.27;;;22.48;;
38085;SDS011;23896;50.678;10.924;2022-08-19T01:58:58;26.13;;;21.42;;
38085;SDS011;23896;50.678;10.924;2022-08-19T02:01:25;28.15;;;22.42;;
38085;SDS011;23896;50.678;10.924;2022-08-19T02:03:51;29.35;;;21.88;;
38085;SDS011;23896;50.678;10.924;2022-08-19T02:06:20;25.15;;;21.48;;
38085;SDS011;23896;50.678;10.924;2022-08-19T02:08:46;25.63;;;22.23;;
38085;SDS011;23896;50.678;10.924;2022-08-19T02:11:27;27.35;;;20.55;;
38085;SDS011;23896;50.678;10.924;2022-08-19T02:13:56;22.02;;;19.80;;
38085;SDS011;23896;50.678;10.924;2022-08-19T02:16:23;24.63;;;20.95;;
38085;SDS011;23896;50.678;10.924;2022-08-19T02:18:50;24.08;;;20.50;;
38085;SDS011;23896;50.678;10.924;2022-08-19T02:21:17;24.15;;;20.67;;
38085;SDS011;23896;50.678;10.924;2022-08-19T02:23:45;24.60;;;21.05;;
38085;SDS011;23896;50.678;10.924;2022-08-19T02:26:11;24.13;;;21.08;;
38085;SDS011;23896;50.678;10.924;2022-08-19T02:28:39;22.98;;;20.10;;
38085;SDS011;23896;50.678;10.924;2022-08-19T02:31:09;21.35;;;19.10;;
38085;SDS011;23896;50.678;10.924;2022-08-19T02:33:35;23.58;;;19.85;;
38085;SDS011;23896;50.678;10.924;2022-08-19T02:36:05;23.40;;;20.38;;
38085;SDS011;23896;50.678;10.924;2022-08-19T02:38:31;23.58;;;19.75;;
38085;SDS011;23896;50.678;10.924;2022-08-19T02:40:59;23.67;;;20.33;;
38085;SDS011;23896;50.678;10.924;2022-08-19T02:43:27;23.85;;;20.13;;
38085;SDS011;23896;50.678;10.924;2022-08-19T02:45:54;25.83;;;21.50;;
38085;SDS011;23896;50.678;10.924;2022-08-19T02:48:21;21.98;;;19.17;;
38085;SDS011;23896;50.678;10.924;2022-08-19T02:50:49;22.25;;;19.90;;
38085;SDS011;23896;50.678;10.924;2022-08-19T02:53:22;21.83;;;18.80;;
38085;SDS011;23896;50.678;10.924;2022-08-19T02:55:50;23.08;;;19.85;;
38085;SDS011;23896;50.678;10.924;2022-08-19T02:58:16;20.52;;;18.05;;
38085;SDS011;23896;50.678;10.924;2022-08-19T03:00:48;23.48;;;19.10;;
38085;SDS011;23896;50.678;10.924;2022-08-19T03:03:15;21.55;;;19.10;;
38085;SDS011;23896;50.678;10.924;2022-08-19T03:05:42;20.38;;;18.17;;
38085;SDS011;23896;50.678;10.924;2022-08-19T03:08:09;20.55;;;17.38;;
38085;SDS011;23896;50.678;10.924;2022-08-19T03:10:41;20.40;;;18.20;;
38085;SDS011;23896;50.678;10.924;2022-08-19T03:13:09;21.85;;;17.85;;
38085;SDS011;23896;50.678;10.924;2022-08-19T03:15:38;18.83;;;16.88;;
38085;SDS011;23896;50.678;10.924;2022-08-19T03:18:04;22.73;;;17.63;;
38085;SDS011;23896;50.678;10.924;2022-08-19T03:20:31;18.63;;;16.67;;
38085;SDS011;23896;50.678;10.924;2022-08-19T03:22:58;20.23;;;16.88;;
38085;SDS011;23896;50.678;10.924;2022-08-19T03:25:24;19.92;;;16.77;;
38085;SDS011;23896;50.678;10.924;2022-08-19T03:27:50;20.73;;;17.35;;
38085;SDS011;23896;50.678;10.924;2022-08-19T03:30:17;19.80;;;17.55;;
38085;SDS011;23896;50.678;10.924;2022-08-19T03:32:43;19.50;;;17.58;;
38085;SDS011;23896;50.678;10.924;2022-08-19T03:35:10;20.02;;;16.30;;
38085;SDS011;23896;50.678;10.924;2022-08-19T03:37:36;20.00;;;16.30;;
38085;SDS011;23896;50.678;10.924;2022-08-19T03:40:03;20.75;;;17.35;;
38085;SDS011;23896;50.678;10.924;2022-08-19T03:42:29;18.05;;;15.48;;
38085;SDS011;23896;50.678;10.924;2022-08-19T03:44:56;19.95;;;16.42;;
38085;SDS011;23896;50.678;10.924;2022-08-19T03:47:23;17.92;;;16.13;;
38085;SDS011;23896;50.678;10.924;2022-08-19T03:49:49;17.05;;;15.30;;
38085;SDS011;23896;50.678;10.924;2022-08-19T03:52:16;18.00;;;16.10;;
38085;SDS011;23896;50.678;10.924;2022-08-19T03:54:42;18.55;;;15.90;;
38085;SDS011;23896;50.678;10.924;2022-08-19T03:57:10;18.40;;;15.82;;
38085;SDS011;23896;50.678;10.924;2022-08-19T03:59:36;19.45;;;16.73;;
38085;SDS011;23896;50.678;10.924;2022-08-19T04:02:06;19.45;;;17.13;;
38085;SDS011;23896;50.678;10.924;2022-08-19T04:04:34;19.38;;;16.33;;
38085;SDS011;23896;50.678;10.924;2022-08-19T04:07:01;20.65;;;17.30;;
38085;SDS011;23896;50.678;10.924;2022-08-19T04:09:28;19.60;;;17.38;;
38085;SDS011;23896;50.678;10.924;2022-08-19T04:11:55;21.35;;;17.95;;
38085;SDS011;23896;50.678;10.924;2022-08-19T04:14:23;20.58;;;17.50;;
38085;SDS011;23896;50.678;10.924;2022-08-19T04:16:51;18.48;;;16.50;;
38085;SDS011;23896;50.678;10.924;2022-08-19T04:19:20;18.23;;;16.25;;
38085;SDS011;23896;50.678;10.924;2022-08-19T04:21:49;19.70;;;16.80;;
38085;SDS011;23896;50.678;10.924;2022-08-19T04:24:17;18.75;;;16.60;;
38085;SDS011;23896;50.678;10.924;2022-08-19T04:26:44;21.50;;;17.65;;
38085;SDS011;23896;50.678;10.924;2022-08-19T04:29:12;20.23;;;18.10;;
38085;SDS011;23896;50.678;10.924;2022-08-19T04:31:39;20.63;;;18.38;;
38085;SDS011;23896;50.678;10.924;2022-08-19T04:34:07;20.05;;;17.95;;
38085;SDS011;23896;50.678;10.924;2022-08-19T04:36:36;19.77;;;17.80;;
38085;SDS011;23896;50.678;10.924;2022-08-19T04:39:06;18.67;;;16.58;;
38085;SDS011;23896;50.678;10.924;2022-08-19T04:41:33;18.42;;;16.27;;
38085;SDS011;23896;50.678;10.924;2022-08-19T04:44:18;18.65;;;16.02;;
38085;SDS011;23896;50.678;10.924;2022-08-19T04:46:45;18.40;;;16.38;;
38085;SDS011;23896;50.678;10.924;2022-08-19T04:49:13;20.75;;;18.55;;
38085;SDS011;23896;50.678;10.924;2022-08-19T04:51:41;18.25;;;16.42;;
38085;SDS011;23896;50.678;10.924;2022-08-19T04:54:08;21.48;;;16.63;;
38085;SDS011;23896;50.678;10.924;2022-08-19T04:56:35;20.20;;;18.13;;
38085;SDS011;23896;50.678;10.924;2022-08-19T04:59:02;23.40;;;19.88;;
38085;SDS011;23896;50.678;10.924;2022-08-19T05:01:29;23.17;;;19.63;;
38085;SDS011;23896;50.678;10.924;2022-08-19T05:03:58;23.60;;;19.65;;
38085;SDS011;23896;50.678;10.924;2022-08-19T05:06:25;20.25;;;18.25;;
38085;SDS011;23896;50.678;10.924;2022-08-19T05:08:52;22.20;;;19.95;;
38085;SDS011;23896;50.678;10.924;2022-08-19T05:11:19;20.60;;;18.40;;
38085;SDS011;23896;50.678;10.924;2022-08-19T05:13:46;23.75;;;19.08;;
38085;SDS011;23896;50.678;10.924;2022-08-19T05:16:18;19.75;;;17.45;;
38085;SDS011;23896;50.678;10.924;2022-08-19T05:18:45;23.40;;;20.88;;
38085;SDS011;23896;50.678;10.924;2022-08-19T05:21:30;22.83;;;20.42;;
38085;SDS011;23896;50.678;10.924;2022-08-19T05:24:15;25.38;;;19.27;;
38085;SDS011;23896;50.678;10.924;2022-08-19T05:26:43;27.02;;;19.17;;
38085;SDS011;23896;50.678;10.924;2022-08-19T05:29:14;25.05;;;20.33;;
38085;SDS011;23896;50.678;10.924;2022-08-19T05:31:41;23.90;;;20.75;;
38085;SDS011;23896;50.678;10.924;2022-08-19T05:34:07;27.90;;;20.48;;
38085;SDS011;23896;50.678;10.924;2022-08-19T05:36:38;24.95;;;20.88;;
38085;SDS011;23896;50.678;10.924;2022-08-19T05:39:06;25.98;;;20.88;;
38085;SDS011;23896;50.678;10.924;2022-08-19T05:41:32;29.13;;;23.10;;
38085;SDS011;23896;50.678;10.924;2022-08-19T05:44:03;27.80;;;22.38;;
38085;SDS011;23896;50.678;10.924;2022-08-19T05:46:34;29.70;;;23.52;;
38085;SDS011;23896;50.678;10.924;2022-08-19T05:49:03;25.73;;;23.08;;
38085;SDS011;23896;50.678;10.924;2022-08-19T05:51:30;24.75;;;21.73;;
38085;SDS011;23896;50.678;10.924;2022-08-19T05:53:57;29.08;;;23.80;;
38085;SDS011;23896;50.678;10.924;2022-08-19T05:56:24;25.05;;;22.35;;
38085;SDS011;23896;50.678;10.924;2022-08-19T05:58:53;25.10;;;22.52;;
38085;SDS011;23896;50.678;10.924;2022-08-19T06:01:20;35.80;;;25.08;;
38085;SDS011;23896;50.678;10.924;2022-08-19T06:03:46;28.10;;;25.13;;
38085;SDS011;23896;50.678;10.924;2022-08-19T06:06:14;34.53;;;25.80;;
38085;SDS011;23896;50.678;10.924;2022-08-19T06:08:41;30.67;;;25.02;;
38085;SDS011;23896;50.678;10.924;2022-08-19T06:11:17;30.30;;;26.27;;
38085;SDS011;23896;50.678;10.924;2022-08-19T06:13:44;29.40;;;25.42;;
38085;SDS011;23896;50.678;10.924;2022-08-19T06:16:13;29.00;;;25.58;;
38085;SDS011;23896;50.678;10.924;2022-08-19T06:18:46;29.75;;;24.83;;
38085;SDS011;23896;50.678;10.924;2022-08-19T06:21:13;27.30;;;22.98;;
38085;SDS011;23896;50.678;10.924;2022-08-19T06:23:40;27.58;;;22.92;;
38085;SDS011;23896;50.678;10.924;2022-08-19T06:26:07;29.15;;;24.25;;
38085;SDS011;23896;50.678;10.924;2022-08-19T06:28:37;30.02;;;22.95;;
38085;SDS011;23896;50.678;10.924;2022-08-19T06:31:08;29.48;;;22.77;;
38085;SDS011;23896;50.678;10.924;2022-08-19T06:33:35;23.98;;;21.48;;
38085;SDS011;23896;50.678;10.924;2022-08-19T06:36:02;25.33;;;22.30;;
38085;SDS011;23896;50.678;10.924;2022-08-19T06:38:29;26.10;;;22.00;;
38085;SDS011;23896;50.678;10.924;2022-08-19T06:41:05;24.40;;;18.40;;
38085;SDS011;23896;50.678;10.924;2022-08-19T06:43:31;21.15;;;18.42;;
38085;SDS011;23896;50.678;10.924;2022-08-19T06:45:58;21.85;;;18.63;;
38085;SDS011;23896;50.678;10.924;2022-08-19T06:48:25;19.55;;;16.60;;
38085;SDS011;23896;50.678;10.924;2022-08-19T06:50:52;18.30;;;16.27;;
38085;SDS011;23896;50.678;10.924;2022-08-19T06:53:18;18.95;;;16.98;;
38085;SDS011;23896;50.678;10.924;2022-08-19T06:55:45;21.17;;;17.42;;
38085;SDS011;23896;50.678;10.924;2022-08-19T06:58:12;26.17;;;22.58;;
38085;SDS011;23896;50.678;10.924;2022-08-19T07:00:39;22.77;;;17.60;;
38085;SDS011;23896;50.678;10.924;2022-08-19T07:03:05;18.00;;;15.80;;
38085;SDS011;23896;50.678;10.924;2022-08-19T07:05:32;16.35;;;14.15;;
38085;SDS011;23896;50.678;10.924;2022-08-19T07:07:59;18.45;;;15.90;;
38085;SDS011;23896;50.678;10.924;2022-08-19T07:10:25;17.33;;;15.60;;
38085;SDS011;23896;50.678;10.924;2022-08-19T07:12:51;20.98;;;16.27;;
38085;SDS011;23896;50.678;10.924;2022-08-19T07:15:18;17.25;;;14.50;;
38085;SDS011;23896;50.678;10.924;2022-08-19T07:17:46;22.52;;;15.45;;
38085;SDS011;23896;50.678;10.924;2022-08-19T07:20:13;18.42;;;16.63;;
38085;SDS011;23896;50.678;10.924;2022-08-19T07:22:40;17.52;;;14.65;;
38085;SDS011;23896;50.678;10.924;2022-08-19T07:25:07;21.52;;;16.38;;
38085;SDS011;23896;50.678;10.924;2022-08-19T07:27:35;16.30;;;13.98;;
38085;SDS011;23896;50.678;10.924;2022-08-19T07:30:02;17.45;;;14.25;;
38085;SDS011;23896;50.678;10.924;2022-08-19T07:32:30;16.42;;;13.30;;
38085;SDS011;23896;50.678;10.924;2022-08-19T07:34:59;15.80;;;14.18;;
38085;SDS011;23896;50.678;10.924;2022-08-19T07:37:28;14.25;;;12.50;;
38085;SDS011;23896;50.678;10.924;2022-08-19T07:39:54;14.65;;;13.18;;
38085;SDS011;23896;50.678;10.924;2022-08-19T07:42:21;16.00;;;12.18;;
38085;SDS011;23896;50.678;10.924;2022-08-19T07:44:47;17.15;;;12.32;;
38085;SDS011;23896;50.678;10.924;2022-08-19T07:47:14;14.10;;;11.23;;
38085;SDS011;23896;50.678;10.924;2022-08-19T07:49:44;11.60;;;10.40;;
38085;SDS011;23896;50.678;10.924;2022-08-19T07:52:14;13.80;;;10.50;;
38085;SDS011;23896;50.678;10.924;2022-08-19T07:54:41;12.52;;;10.02;;
38085;SDS011;23896;50.678;10.924;2022-08-19T07:57:08;12.07;;;9.52;;
38085;SDS011;23896;50.678;10.924;2022-08-19T07:59:35;12.38;;;9.85;;
38085;SDS011;23896;50.678;10.924;2022-08-19T08:02:02;12.40;;;9.65;;
38085;SDS011;23896;50.678;10.924;2022-08-19T08:04:29;11.38;;;9.82;;
38085;SDS011;23896;50.678;10.924;2022-08-19T08:07:14;11.48;;;10.20;;
38085;SDS011;23896;50.678;10.924;2022-08-19T08:09:59;12.65;;;10.73;;
38085;SDS011;23896;50.678;10.924;2022-08-19T08:12:27;12.13;;;10.00;;
38085;SDS011;23896;50.678;10.924;2022-08-19T08:14:55;13.05;;;9.93;;
38085;SDS011;23896;50.678;10.924;2022-08-19T08:17:23;12.05;;;10.30;;
38085;SDS011;23896;50.678;10.924;2022-08-19T08:19:50;13.23;;;9.88;;
38085;SDS011;23896;50.678;10.924;2022-08-19T08:22:18;13.05;;;10.18;;
38085;SDS011;23896;50.678;10.924;2022-08-19T08:25:06;11.63;;;8.73;;
38085;SDS011;23896;50.678;10.924;2022-08-19T08:27:37;13.32;;;8.95;;
38085;SDS011;23896;50.678;10.924;2022-08-19T08:30:06;8.75;;;7.90;;
38085;SDS011;23896;50.678;10.924;2022-08-19T08:32:35;9.38;;;8.38;;
38085;SDS011;23896;50.678;10.924;2022-08-19T08:35:03;13.70;;;9.45;;
38085;SDS011;23896;50.678;10.924;2022-08-19T08:37:29;9.38;;;8.48;;
38085;SDS011;23896;50.678;10.924;2022-08-19T08:39:56;40.03;;;18.52;;
38085;SDS011;23896;50.678;10.924;2022-08-19T08:42:24;17.52;;;12.27;;
38085;SDS011;23896;50.678;10.924;2022-08-19T08:45:00;42.80;;;12.68;;
38085;SDS011;23896;50.678;10.924;2022-08-19T08:47:34;41.38;;;12.75;;
38085;SDS011;23896;50.678;10.924;2022-08-19T08:50:06;15.93;;;9.55;;
38085;SDS011;23896;50.678;10.924;2022-08-19T08:52:36;10.57;;;9.07;;
38085;SDS011;23896;50.678;10.924;2022-08-19T08:55:11;10.57;;;9.52;;
38085;SDS011;23896;50.678;10.924;2022-08-19T08:57:39;17.65;;;15.40;;
38085;SDS011;23896;50.678;10.924;2022-08-19T09:00:14;15.88;;;11.60;;
38085;SDS011;23896;50.678;10.924;2022-08-19T09:02:44;11.38;;;9.82;;
38085;SDS011;23896;50.678;10.924;2022-08-19T09:05:11;11.57;;;9.93;;
38085;SDS011;23896;50.678;10.924;2022-08-19T09:07:42;11.20;;;9.57;;
38085;SDS011;23896;50.678;10.924;2022-08-19T09:10:27;10.57;;;9.52;;
38085;SDS011;23896;50.678;10.924;2022-08-19T09:15:44;13.50;;;10.57;;
38085;SDS011;23896;50.678;10.924;2022-08-19T09:18:11;13.02;;;9.55;;
38085;SDS011;23896;50.678;10.924;2022-08-19T09:20:38;11.02;;;9.07;;
38085;SDS011;23896;50.678;10.924;2022-08-19T09:23:04;11.32;;;8.35;;
38085;SDS011;23896;50.678;10.924;2022-08-19T09:25:30;9.98;;;7.50;;
38085;SDS011;23896;50.678;10.924;2022-08-19T09:27:59;8.73;;;7.80;;
38085;SDS011;23896;50.678;10.924;2022-08-19T09:30:30;7.38;;;6.70;;
38085;SDS011;23896;50.678;10.924;2022-08-19T09:32:57;8.50;;;5.60;;
38085;SDS011;23896;50.678;10.924;2022-08-19T09:35:24;6.53;;;5.15;;
38085;SDS011;23896;50.678;10.924;2022-08-19T09:37:51;5.35;;;4.88;;
38085;SDS011;23896;50.678;10.924;2022-08-19T09:40:18;5.40;;;5.00;;
38085;SDS011;23896;50.678;10.924;2022-08-19T09:42:45;5.35;;;4.88;;
38085;SDS011;23896;50.678;10.924;2022-08-19T09:45:13;7.72;;;5.07;;
38085;SDS011;23896;50.678;10.924;2022-08-19T09:47:40;5.07;;;4.57;;
38085;SDS011;23896;50.678;10.924;2022-08-19T09:50:07;5.28;;;4.78;;
38085;SDS011;23896;50.678;10.924;2022-08-19T09:52:34;5.15;;;4.68;;
38085;SDS011;23896;50.678;10.924;2022-08-19T09:55:10;5.88;;;4.60;;
38085;SDS011;23896;50.678;10.924;2022-08-19T09:57:37;5.63;;;4.55;;
38085;SDS011;23896;50.678;10.924;2022-08-19T10:00:05;4.80;;;4.40;;
38085;SDS011;23896;50.678;10.924;2022-08-19T10:02:32;5.28;;;4.00;;
38085;SDS011;23896;50.678;10.924;2022-08-19T10:04:58;4.82;;;4.20;;
38085;SDS011;23896;50.678;10.924;2022-08-19T10:07:43;4.93;;;4.50;;
38085;SDS011;23896;50.678;10.924;2022-08-19T10:10:10;4.68;;;4.25;;
38085;SDS011;23896;50.678;10.924;2022-08-19T10:12:36;4.95;;;4.47;;
38085;SDS011;23896;50.678;10.924;2022-08-19T10:15:04;6.20;;;4.43;;
38085;SDS011;23896;50.678;10.924;2022-08-19T10:17:31;4.80;;;4.38;;
38085;SDS011;23896;50.678;10.924;2022-08-19T10:20:00;5.35;;;4.85;;
38085;SDS011;23896;50.678;10.924;2022-08-19T10:22:29;6.05;;;4.45;;
38085;SDS011;23896;50.678;10.924;2022-08-19T10:24:56;5.35;;;4.25;;
38085;SDS011;23896;50.678;10.924;2022-08-19T10:27:22;5.65;;;4.40;;
38085;SDS011;23896;50.678;10.924;2022-08-19T10:29:49;4.80;;;4.50;;
38085;SDS011;23896;50.678;10.924;2022-08-19T10:32:15;6.20;;;4.57;;
38085;SDS011;23896;50.678;10.924;2022-08-19T10:34:47;8.68;;;4.80;;
38085;SDS011;23896;50.678;10.924;2022-08-19T10:37:15;5.45;;;4.90;;
38085;SDS011;23896;50.678;10.924;2022-08-19T10:39:45;13.48;;;6.03;;
38085;SDS011;23896;50.678;10.924;2022-08-19T10:42:13;23.00;;;7.95;;
38085;SDS011;23896;50.678;10.924;2022-08-19T10:44:41;11.95;;;5.28;;
38085;SDS011;23896;50.678;10.924;2022-08-19T10:47:07;20.05;;;6.05;;
38085;SDS011;23896;50.678;10.924;2022-08-19T10:49:34;10.00;;;4.90;;
38085;SDS011;23896;50.678;10.924;2022-08-19T10:52:20;5.30;;;3.42;;
38085;SDS011;23896;50.678;10.924;2022-08-19T10:55:00;18.88;;;13.98;;
38085;SDS011;23896;50.678;10.924;2022-08-19T10:57:45;9.73;;;4.45;;
38085;SDS011;23896;50.678;10.924;2022-08-19T11:00:11;14.45;;;3.97;;
38085;SDS011;23896;50.678;10.924;2022-08-19T11:02:38;11.32;;;3.40;;
38085;SDS011;23896;50.678;10.924;2022-08-19T11:05:06;7.47;;;3.58;;
38085;SDS011;23896;50.678;10.924;2022-08-19T11:07:34;2.58;;;2.38;;
38085;SDS011;23896;50.678;10.924;2022-08-19T11:10:02;2.60;;;2.40;;
38085;SDS011;23896;50.678;10.924;2022-08-19T11:12:29;2.55;;;2.35;;
38085;SDS011;23896;50.678;10.924;2022-08-19T11:14:55;4.47;;;3.38;;
38085;SDS011;23896;50.678;10.924;2022-08-19T11:17:22;3.45;;;2.33;;
38085;SDS011;23896;50.678;10.924;2022-08-19T11:19:51;4.97;;;2.58;;
38085;SDS011;23896;50.678;10.924;2022-08-19T11:22:21;4.82;;;2.50;;
38085;SDS011;23896;50.678;10.924;2022-08-19T11:24:47;4.25;;;2.97;;
38085;SDS011;23896;50.678;10.924;2022-08-19T11:27:16;2.33;;;2.22;;
38085;SDS011;23896;50.678;10.924;2022-08-19T11:29:43;2.92;;;2.72;;
38085;SDS011;23896;50.678;10.924;2022-08-19T11:32:09;3.53;;;2.92;;
38085;SDS011;23896;50.678;10.924;2022-08-19T11:34:40;2.80;;;2.60;;
38085;SDS011;23896;50.678;10.924;2022-08-19T11:37:07;5.97;;;3.17;;
38085;SDS011;23896;50.678;10.924;2022-08-19T11:39:34;3.15;;;2.85;;
38085;SDS011;23896;50.678;10.924;2022-08-19T11:42:02;10.60;;;9.05;;
38085;SDS011;23896;50.678;10.924;2022-08-19T11:44:48;4.90;;;3.97;;
38085;SDS011;23896;50.678;10.924;2022-08-19T11:47:14;6.90;;;4.07;;
38085;SDS011;23896;50.678;10.924;2022-08-19T11:49:41;2.10;;;2.00;;
38085;SDS011;23896;50.678;10.924;2022-08-19T11:52:08;4.15;;;2.40;;
38085;SDS011;23896;50.678;10.924;2022-08-19T11:54:34;2.92;;;2.30;;
38085;SDS011;23896;50.678;10.924;2022-08-19T11:57:02;4.72;;;2.40;;
38085;SDS011;23896;50.678;10.924;2022-08-19T11:59:29;2.42;;;2.22;;
38085;SDS011;23896;50.678;10.924;2022-08-19T12:01:55;2.47;;;2.28;;
38085;SDS011;23896;50.678;10.924;2022-08-19T12:04:23;2.40;;;2.20;;
38085;SDS011;23896;50.678;10.924;2022-08-19T12:06:49;2.60;;;1.85;;
38085;SDS011;23896;50.678;10.924;2022-08-19T12:09:16;2.55;;;1.73;;
38085;SDS011;23896;50.678;10.924;2022-08-19T12:11:42;2.33;;;2.08;;
38085;SDS011;23896;50.678;10.924;2022-08-19T12:14:10;3.88;;;2.03;;
38085;SDS011;23896;50.678;10.924;2022-08-19T12:16:39;5.25;;;2.30;;
38085;SDS011;23896;50.678;10.924;2022-08-19T12:19:06;3.05;;;1.95;;
38085;SDS011;23896;50.678;10.924;2022-08-19T12:21:34;2.88;;;2.38;;
38085;SDS011;23896;50.678;10.924;2022-08-19T12:24:01;2.50;;;2.30;;
38085;SDS011;23896;50.678;10.924;2022-08-19T12:26:28;2.33;;;1.60;;
38085;SDS011;23896;50.678;10.924;2022-08-19T12:28:56;4.22;;;2.25;;
38085;SDS011;23896;50.678;10.924;2022-08-19T12:31:25;2.08;;;1.85;;
38085;SDS011;23896;50.678;10.924;2022-08-19T12:33:51;1.60;;;1.50;;
38085;SDS011;23896;50.678;10.924;2022-08-19T12:36:17;2.08;;;1.90;;
38085;SDS011;23896;50.678;10.924;2022-08-19T12:38:45;5.60;;;1.90;;
38085;SDS011;23896;50.678;10.924;2022-08-19T12:41:12;2.15;;;1.95;;
38085;SDS011;23896;50.678;10.924;2022-08-19T12:43:39;1.92;;;1.83;;
38085;SDS011;23896;50.678;10.924;2022-08-19T12:46:06;3.55;;;1.60;;
38085;SDS011;23896;50.678;10.924;2022-08-19T12:48:33;1.98;;;1.73;;
38085;SDS011;23896;50.678;10.924;2022-08-19T12:51:00;2.40;;;1.80;;
38085;SDS011;23896;50.678;10.924;2022-08-19T12:53:27;1.70;;;1.60;;
38085;SDS011;23896;50.678;10.924;2022-08-19T12:55:57;2.10;;;1.40;;
38085;SDS011;23896;50.678;10.924;2022-08-19T12:58:25;2.20;;;1.45;;
38085;SDS011;23896;50.678;10.924;2022-08-19T13:00:52;6.13;;;4.65;;
38085;SDS011;23896;50.678;10.924;2022-08-19T13:03:18;4.78;;;2.10;;
38085;SDS011;23896;50.678;10.924;2022-08-19T13:05:45;1.85;;;1.65;;
38085;SDS011;23896;50.678;10.924;2022-08-19T13:08:11;5.07;;;2.03;;
38085;SDS011;23896;50.678;10.924;2022-08-19T13:10:37;1.73;;;1.63;;
38085;SDS011;23896;50.678;10.924;2022-08-19T13:13:06;1.75;;;1.58;;
38085;SDS011;23896;50.678;10.924;2022-08-19T13:15:36;3.00;;;1.90;;
38085;SDS011;23896;50.678;10.924;2022-08-19T13:18:04;1.80;;;1.67;;
38085;SDS011;23896;50.678;10.924;2022-08-19T13:20:31;3.45;;;2.30;;
38085;SDS011;23896;50.678;10.924;2022-08-19T13:22:57;1.80;;;1.70;;
38085;SDS011;23896;50.678;10.924;2022-08-19T13:25:24;3.92;;;2.10;;
38085;SDS011;23896;50.678;10.924;2022-08-19T13:27:54;2.70;;;2.30;;
38085;SDS011;23896;50.678;10.924;2022-08-19T13:30:21;2.83;;;1.80;;
38085;SDS011;23896;50.678;10.924;2022-08-19T13:33:07;2.40;;;2.22;;
38085;SDS011;23896;50.678;10.924;2022-08-19T13:35:41;2.03;;;1.92;;
38085;SDS011;23896;50.678;10.924;2022-08-19T13:38:08;2.10;;;2.00;;
38085;SDS011;23896;50.678;10.924;2022-08-19T13:40:35;2.20;;;2.00;;
38085;SDS011;23896;50.678;10.924;2022-08-19T13:43:03;2.67;;;2.45;;
38085;SDS011;23896;50.678;10.924;2022-08-19T13:45:30;2.97;;;2.42;;
38085;SDS011;23896;50.678;10.924;2022-08-19T13:48:09;2.35;;;2.00;;
38085;SDS011;23896;50.678;10.924;2022-08-19T13:50:40;1.98;;;1.75;;
38085;SDS011;23896;50.678;10.924;2022-08-19T13:53:08;2.65;;;2.45;;
38085;SDS011;23896;50.678;10.924;2022-08-19T13:55:36;2.30;;;2.10;;
38085;SDS011;23896;50.678;10.924;2022-08-19T13:58:03;2.53;;;2.33;;
38085;SDS011;23896;50.678;10.924;2022-08-19T14:00:31;2.92;;;1.90;;
38085;SDS011;23896;50.678;10.924;2022-08-19T14:03:02;3.45;;;2.08;;
38085;SDS011;23896;50.678;10.924;2022-08-19T14:05:29;3.28;;;2.20;;
38085;SDS011;23896;50.678;10.924;2022-08-19T14:07:56;2.28;;;2.00;;
38085;SDS011;23896;50.678;10.924;2022-08-19T14:10:23;2.50;;;2.30;;
38085;SDS011;23896;50.678;10.924;2022-08-19T14:12:54;2.30;;;2.10;;
38085;SDS011;23896;50.678;10.924;2022-08-19T14:15:20;2.33;;;2.10;;
38085;SDS011;23896;50.678;10.924;2022-08-19T14:17:48;3.33;;;2.33;;
38085;SDS011;23896;50.678;10.924;2022-08-19T14:20:15;2.83;;;2.15;;
38085;SDS011;23896;50.678;10.924;2022-08-19T14:22:42;2.42;;;2.22;;
38085;SDS011;23896;50.678;10.924;2022-08-19T14:25:09;2.13;;;1.90;;
38085;SDS011;23896;50.678;10.924;2022-08-19T14:27:37;3.47;;;2.75;;
38085;SDS011;23896;50.678;10.924;2022-08-19T14:30:04;3.25;;;2.55;;
38085;SDS011;23896;50.678;10.924;2022-08-19T14:32:32;2.33;;;2.00;;
38085;SDS011;23896;50.678;10.924;2022-08-19T14:34:59;2.47;;;2.28;;